sensor_id;sensor_type;location;lat;lon;timestamp;P1;durP1;ratioP1;P2;durP2;ratioP2
60975;SDS011;46849;48.154;17.042;2022-07-25T00:01:15;3.00;;;2.00;;
60975;SDS011;46849;48.154;17.042;2022-07-25T00:04:00;2.58;;;1.60;;
60975;SDS011;46849;48.154;17.042;2022-07-25T00:06:44;2.97;;;1.63;;
60975;SDS011;46849;48.154;17.042;2022-07-25T00:09:29;2.83;;;1.58;;
60975;SDS011;46849;48.154;17.042;2022-07-25T00:12:14;2.70;;;1.50;;
60975;SDS011;46849;48.154;17.042;2022-07-25T00:14:59;2.58;;;1.70;;
60975;SDS011;46849;48.154;17.042;2022-07-25T00:17:44;2.67;;;1.67;;
60975;SDS011;46849;48.154;17.042;2022-07-25T00:20:28;2.22;;;1.55;;
60975;SDS011;46849;48.154;17.042;2022-07-25T00:23:13;3.05;;;1.67;;
60975;SDS011;46849;48.154;17.042;2022-07-25T00:25:58;2.03;;;1.40;;
60975;SDS011;46849;48.154;17.042;2022-07-25T00:28:42;2.10;;;1.45;;
60975;SDS011;46849;48.154;17.042;2022-07-25T00:31:27;1.92;;;1.38;;
60975;SDS011;46849;48.154;17.042;2022-07-25T00:34:11;2.42;;;1.48;;
60975;SDS011;46849;48.154;17.042;2022-07-25T00:36:56;2.13;;;1.35;;
60975;SDS011;46849;48.154;17.042;2022-07-25T00:39:41;2.40;;;1.50;;
60975;SDS011;46849;48.154;17.042;2022-07-25T00:42:26;1.85;;;1.20;;
60975;SDS011;46849;48.154;17.042;2022-07-25T00:45:10;2.35;;;1.30;;
60975;SDS011;46849;48.154;17.042;2022-07-25T00:47:55;3.35;;;1.40;;
60975;SDS011;46849;48.154;17.042;2022-07-25T00:50:40;1.92;;;1.45;;
60975;SDS011;46849;48.154;17.042;2022-07-25T00:53:25;3.08;;;1.60;;
60975;SDS011;46849;48.154;17.042;2022-07-25T00:56:09;2.20;;;1.60;;
60975;SDS011;46849;48.154;17.042;2022-07-25T00:58:54;2.97;;;1.75;;
60975;SDS011;46849;48.154;17.042;2022-07-25T01:01:39;2.67;;;1.50;;
60975;SDS011;46849;48.154;17.042;2022-07-25T01:04:25;3.38;;;1.80;;
60975;SDS011;46849;48.154;17.042;2022-07-25T01:07:10;2.42;;;1.52;;
60975;SDS011;46849;48.154;17.042;2022-07-25T01:09:54;3.78;;;1.70;;
60975;SDS011;46849;48.154;17.042;2022-07-25T01:12:48;3.13;;;1.85;;
60975;SDS011;46849;48.154;17.042;2022-07-25T01:15:34;3.90;;;1.50;;
60975;SDS011;46849;48.154;17.042;2022-07-25T01:18:19;2.50;;;1.60;;
60975;SDS011;46849;48.154;17.042;2022-07-25T01:21:04;3.08;;;1.55;;
60975;SDS011;46849;48.154;17.042;2022-07-25T01:23:49;2.88;;;1.40;;
60975;SDS011;46849;48.154;17.042;2022-07-25T01:26:35;3.45;;;1.60;;
60975;SDS011;46849;48.154;17.042;2022-07-25T01:29:20;2.17;;;1.48;;
60975;SDS011;46849;48.154;17.042;2022-07-25T01:32:05;2.17;;;1.50;;
60975;SDS011;46849;48.154;17.042;2022-07-25T01:34:49;2.03;;;1.40;;
60975;SDS011;46849;48.154;17.042;2022-07-25T01:37:34;4.35;;;1.55;;
60975;SDS011;46849;48.154;17.042;2022-07-25T01:40:19;1.88;;;1.52;;
60975;SDS011;46849;48.154;17.042;2022-07-25T01:43:05;2.95;;;1.60;;
60975;SDS011;46849;48.154;17.042;2022-07-25T01:45:49;2.47;;;1.48;;
60975;SDS011;46849;48.154;17.042;2022-07-25T01:48:34;1.83;;;1.40;;
60975;SDS011;46849;48.154;17.042;2022-07-25T01:51:18;2.10;;;1.42;;
60975;SDS011;46849;48.154;17.042;2022-07-25T01:54:03;3.30;;;1.48;;
60975;SDS011;46849;48.154;17.042;2022-07-25T01:56:48;2.80;;;1.50;;
60975;SDS011;46849;48.154;17.042;2022-07-25T01:59:36;2.80;;;1.27;;
60975;SDS011;46849;48.154;17.042;2022-07-25T02:02:22;1.67;;;1.33;;
60975;SDS011;46849;48.154;17.042;2022-07-25T02:05:08;1.60;;;1.30;;
60975;SDS011;46849;48.154;17.042;2022-07-25T02:07:54;2.25;;;1.20;;
60975;SDS011;46849;48.154;17.042;2022-07-25T02:10:39;2.97;;;1.35;;
60975;SDS011;46849;48.154;17.042;2022-07-25T02:13:24;2.08;;;1.40;;
60975;SDS011;46849;48.154;17.042;2022-07-25T02:16:10;1.90;;;1.10;;
60975;SDS011;46849;48.154;17.042;2022-07-25T02:18:55;2.00;;;1.40;;
60975;SDS011;46849;48.154;17.042;2022-07-25T02:21:40;2.25;;;1.55;;
60975;SDS011;46849;48.154;17.042;2022-07-25T02:24:25;3.90;;;1.58;;
60975;SDS011;46849;48.154;17.042;2022-07-25T02:27:10;1.90;;;1.20;;
60975;SDS011;46849;48.154;17.042;2022-07-25T02:29:55;2.35;;;1.33;;
60975;SDS011;46849;48.154;17.042;2022-07-25T02:32:39;1.77;;;1.10;;
60975;SDS011;46849;48.154;17.042;2022-07-25T02:35:24;2.95;;;1.20;;
60975;SDS011;46849;48.154;17.042;2022-07-25T02:38:09;1.42;;;1.00;;
60975;SDS011;46849;48.154;17.042;2022-07-25T02:40:54;1.98;;;1.42;;
60975;SDS011;46849;48.154;17.042;2022-07-25T02:43:38;3.33;;;1.10;;
60975;SDS011;46849;48.154;17.042;2022-07-25T02:46:23;1.63;;;1.25;;
60975;SDS011;46849;48.154;17.042;2022-07-25T02:49:08;1.70;;;0.93;;
60975;SDS011;46849;48.154;17.042;2022-07-25T02:51:53;2.55;;;1.40;;
60975;SDS011;46849;48.154;17.042;2022-07-25T02:54:38;3.13;;;1.08;;
60975;SDS011;46849;48.154;17.042;2022-07-25T02:57:22;2.22;;;1.00;;
60975;SDS011;46849;48.154;17.042;2022-07-25T03:00:07;2.15;;;1.20;;
60975;SDS011;46849;48.154;17.042;2022-07-25T03:02:53;1.60;;;1.13;;
60975;SDS011;46849;48.154;17.042;2022-07-25T03:05:38;1.33;;;1.10;;
60975;SDS011;46849;48.154;17.042;2022-07-25T03:08:22;2.20;;;1.25;;
60975;SDS011;46849;48.154;17.042;2022-07-25T03:11:07;2.47;;;1.30;;
60975;SDS011;46849;48.154;17.042;2022-07-25T03:13:52;1.95;;;1.15;;
60975;SDS011;46849;48.154;17.042;2022-07-25T03:16:36;1.98;;;1.35;;
60975;SDS011;46849;48.154;17.042;2022-07-25T03:19:21;2.03;;;1.50;;
60975;SDS011;46849;48.154;17.042;2022-07-25T03:22:06;1.67;;;1.13;;
60975;SDS011;46849;48.154;17.042;2022-07-25T03:24:51;2.80;;;1.50;;
60975;SDS011;46849;48.154;17.042;2022-07-25T03:27:36;1.67;;;1.10;;
60975;SDS011;46849;48.154;17.042;2022-07-25T03:30:21;2.42;;;1.20;;
60975;SDS011;46849;48.154;17.042;2022-07-25T03:33:07;3.83;;;1.30;;
60975;SDS011;46849;48.154;17.042;2022-07-25T03:35:52;2.33;;;1.50;;
60975;SDS011;46849;48.154;17.042;2022-07-25T03:38:36;1.48;;;1.25;;
60975;SDS011;46849;48.154;17.042;2022-07-25T03:41:21;2.35;;;1.30;;
60975;SDS011;46849;48.154;17.042;2022-07-25T03:44:05;2.38;;;1.38;;
60975;SDS011;46849;48.154;17.042;2022-07-25T03:46:50;4.20;;;1.40;;
60975;SDS011;46849;48.154;17.042;2022-07-25T03:49:35;3.13;;;1.35;;
60975;SDS011;46849;48.154;17.042;2022-07-25T03:52:20;1.67;;;1.23;;
60975;SDS011;46849;48.154;17.042;2022-07-25T03:55:05;2.97;;;1.60;;
60975;SDS011;46849;48.154;17.042;2022-07-25T03:57:54;2.72;;;1.50;;
60975;SDS011;46849;48.154;17.042;2022-07-25T04:00:39;4.43;;;1.83;;
60975;SDS011;46849;48.154;17.042;2022-07-25T04:03:23;6.07;;;1.63;;
60975;SDS011;46849;48.154;17.042;2022-07-25T04:06:08;3.33;;;1.60;;
60975;SDS011;46849;48.154;17.042;2022-07-25T04:08:53;2.85;;;1.65;;
60975;SDS011;46849;48.154;17.042;2022-07-25T04:11:39;3.15;;;1.48;;
60975;SDS011;46849;48.154;17.042;2022-07-25T04:14:24;3.10;;;1.90;;
60975;SDS011;46849;48.154;17.042;2022-07-25T04:17:08;2.58;;;1.70;;
60975;SDS011;46849;48.154;17.042;2022-07-25T04:19:53;4.53;;;1.73;;
60975;SDS011;46849;48.154;17.042;2022-07-25T04:22:38;3.30;;;1.80;;
60975;SDS011;46849;48.154;17.042;2022-07-25T04:25:22;2.05;;;1.50;;
60975;SDS011;46849;48.154;17.042;2022-07-25T04:28:07;2.72;;;1.70;;
60975;SDS011;46849;48.154;17.042;2022-07-25T04:30:52;2.83;;;1.70;;
60975;SDS011;46849;48.154;17.042;2022-07-25T04:33:38;4.18;;;2.35;;
60975;SDS011;46849;48.154;17.042;2022-07-25T04:36:23;2.15;;;1.42;;
60975;SDS011;46849;48.154;17.042;2022-07-25T04:39:08;3.20;;;1.42;;
60975;SDS011;46849;48.154;17.042;2022-07-25T04:41:53;2.70;;;1.50;;
60975;SDS011;46849;48.154;17.042;2022-07-25T04:44:37;2.47;;;1.63;;
60975;SDS011;46849;48.154;17.042;2022-07-25T04:47:22;4.35;;;1.45;;
60975;SDS011;46849;48.154;17.042;2022-07-25T04:50:07;2.10;;;1.30;;
60975;SDS011;46849;48.154;17.042;2022-07-25T04:52:52;4.28;;;1.45;;
60975;SDS011;46849;48.154;17.042;2022-07-25T04:55:37;2.08;;;1.10;;
60975;SDS011;46849;48.154;17.042;2022-07-25T04:58:22;3.22;;;1.50;;
60975;SDS011;46849;48.154;17.042;2022-07-25T05:01:07;7.53;;;1.27;;
60975;SDS011;46849;48.154;17.042;2022-07-25T05:03:52;3.03;;;1.40;;
60975;SDS011;46849;48.154;17.042;2022-07-25T05:06:36;2.50;;;1.40;;
60975;SDS011;46849;48.154;17.042;2022-07-25T05:09:21;3.13;;;1.55;;
60975;SDS011;46849;48.154;17.042;2022-07-25T05:12:05;2.28;;;1.10;;
60975;SDS011;46849;48.154;17.042;2022-07-25T05:14:51;3.20;;;1.08;;
60975;SDS011;46849;48.154;17.042;2022-07-25T05:17:35;8.25;;;1.90;;
60975;SDS011;46849;48.154;17.042;2022-07-25T05:20:20;3.65;;;1.67;;
60975;SDS011;46849;48.154;17.042;2022-07-25T05:23:05;3.15;;;1.60;;
60975;SDS011;46849;48.154;17.042;2022-07-25T05:25:50;3.70;;;1.70;;
60975;SDS011;46849;48.154;17.042;2022-07-25T05:28:36;3.08;;;1.63;;
60975;SDS011;46849;48.154;17.042;2022-07-25T05:31:20;3.80;;;1.27;;
60975;SDS011;46849;48.154;17.042;2022-07-25T05:34:05;9.57;;;1.50;;
60975;SDS011;46849;48.154;17.042;2022-07-25T05:36:50;3.88;;;1.30;;
60975;SDS011;46849;48.154;17.042;2022-07-25T05:39:35;2.47;;;1.20;;
60975;SDS011;46849;48.154;17.042;2022-07-25T05:42:22;3.30;;;1.23;;
60975;SDS011;46849;48.154;17.042;2022-07-25T05:45:07;2.40;;;1.20;;
60975;SDS011;46849;48.154;17.042;2022-07-25T05:47:52;3.00;;;1.40;;
60975;SDS011;46849;48.154;17.042;2022-07-25T05:50:37;3.65;;;1.23;;
60975;SDS011;46849;48.154;17.042;2022-07-25T05:53:21;1.70;;;1.35;;
60975;SDS011;46849;48.154;17.042;2022-07-25T05:56:06;11.52;;;1.48;;
60975;SDS011;46849;48.154;17.042;2022-07-25T05:58:51;2.65;;;1.20;;
60975;SDS011;46849;48.154;17.042;2022-07-25T06:01:36;3.80;;;2.13;;
60975;SDS011;46849;48.154;17.042;2022-07-25T06:04:21;3.53;;;1.50;;
60975;SDS011;46849;48.154;17.042;2022-07-25T06:07:06;6.68;;;1.65;;
60975;SDS011;46849;48.154;17.042;2022-07-25T06:09:50;2.45;;;1.38;;
60975;SDS011;46849;48.154;17.042;2022-07-25T06:12:35;2.97;;;1.83;;
60975;SDS011;46849;48.154;17.042;2022-07-25T06:15:20;3.75;;;2.28;;
60975;SDS011;46849;48.154;17.042;2022-07-25T06:18:05;4.35;;;1.42;;
60975;SDS011;46849;48.154;17.042;2022-07-25T06:20:49;4.57;;;2.13;;
60975;SDS011;46849;48.154;17.042;2022-07-25T06:23:34;4.55;;;1.60;;
60975;SDS011;46849;48.154;17.042;2022-07-25T06:26:19;4.10;;;1.70;;
60975;SDS011;46849;48.154;17.042;2022-07-25T06:29:04;4.40;;;1.85;;
60975;SDS011;46849;48.154;17.042;2022-07-25T06:31:49;3.15;;;2.00;;
60975;SDS011;46849;48.154;17.042;2022-07-25T06:34:33;3.20;;;1.60;;
60975;SDS011;46849;48.154;17.042;2022-07-25T06:37:18;4.85;;;2.05;;
60975;SDS011;46849;48.154;17.042;2022-07-25T06:40:03;4.30;;;2.17;;
60975;SDS011;46849;48.154;17.042;2022-07-25T06:42:48;2.88;;;2.05;;
60975;SDS011;46849;48.154;17.042;2022-07-25T06:45:33;4.70;;;1.80;;
60975;SDS011;46849;48.154;17.042;2022-07-25T06:48:18;8.10;;;1.60;;
60975;SDS011;46849;48.154;17.042;2022-07-25T06:51:04;4.22;;;1.90;;
60975;SDS011;46849;48.154;17.042;2022-07-25T06:53:49;8.45;;;1.90;;
60975;SDS011;46849;48.154;17.042;2022-07-25T06:56:34;4.00;;;1.98;;
60975;SDS011;46849;48.154;17.042;2022-07-25T06:59:18;5.53;;;1.80;;
60975;SDS011;46849;48.154;17.042;2022-07-25T07:02:03;3.05;;;1.73;;
60975;SDS011;46849;48.154;17.042;2022-07-25T07:04:48;5.18;;;2.15;;
60975;SDS011;46849;48.154;17.042;2022-07-25T07:07:33;2.47;;;1.65;;
60975;SDS011;46849;48.154;17.042;2022-07-25T07:10:17;4.90;;;2.35;;
60975;SDS011;46849;48.154;17.042;2022-07-25T07:13:13;2.33;;;1.65;;
60975;SDS011;46849;48.154;17.042;2022-07-25T07:16:02;2.30;;;1.50;;
60975;SDS011;46849;48.154;17.042;2022-07-25T07:18:47;4.07;;;1.80;;
60975;SDS011;46849;48.154;17.042;2022-07-25T07:21:32;2.58;;;1.50;;
60975;SDS011;46849;48.154;17.042;2022-07-25T07:24:17;3.00;;;1.75;;
60975;SDS011;46849;48.154;17.042;2022-07-25T07:27:02;2.88;;;1.65;;
60975;SDS011;46849;48.154;17.042;2022-07-25T07:29:47;3.47;;;2.10;;
60975;SDS011;46849;48.154;17.042;2022-07-25T07:32:32;2.83;;;1.70;;
60975;SDS011;46849;48.154;17.042;2022-07-25T07:35:17;4.72;;;1.80;;
60975;SDS011;46849;48.154;17.042;2022-07-25T07:38:02;2.00;;;1.70;;
60975;SDS011;46849;48.154;17.042;2022-07-25T07:40:47;3.00;;;1.55;;
60975;SDS011;46849;48.154;17.042;2022-07-25T07:43:32;3.75;;;2.05;;
60975;SDS011;46849;48.154;17.042;2022-07-25T07:46:16;4.93;;;2.30;;
60975;SDS011;46849;48.154;17.042;2022-07-25T07:49:01;3.58;;;1.95;;
60975;SDS011;46849;48.154;17.042;2022-07-25T07:51:46;3.33;;;2.35;;
60975;SDS011;46849;48.154;17.042;2022-07-25T07:54:30;2.33;;;1.67;;
60975;SDS011;46849;48.154;17.042;2022-07-25T07:57:33;3.70;;;2.33;;
60975;SDS011;46849;48.154;17.042;2022-07-25T08:00:19;3.42;;;2.00;;
60975;SDS011;46849;48.154;17.042;2022-07-25T08:03:04;3.30;;;2.30;;
60975;SDS011;46849;48.154;17.042;2022-07-25T08:05:50;9.38;;;2.33;;
60975;SDS011;46849;48.154;17.042;2022-07-25T08:08:35;4.53;;;2.63;;
60975;SDS011;46849;48.154;17.042;2022-07-25T08:11:20;3.72;;;2.20;;
60975;SDS011;46849;48.154;17.042;2022-07-25T08:14:04;4.20;;;2.30;;
60975;SDS011;46849;48.154;17.042;2022-07-25T08:16:50;5.47;;;2.53;;
60975;SDS011;46849;48.154;17.042;2022-07-25T08:19:36;5.32;;;2.00;;
60975;SDS011;46849;48.154;17.042;2022-07-25T08:22:20;5.13;;;2.65;;
60975;SDS011;46849;48.154;17.042;2022-07-25T08:25:06;13.30;;;2.67;;
60975;SDS011;46849;48.154;17.042;2022-07-25T08:27:52;3.90;;;2.08;;
60975;SDS011;46849;48.154;17.042;2022-07-25T08:30:39;4.57;;;2.28;;
60975;SDS011;46849;48.154;17.042;2022-07-25T08:33:24;4.53;;;2.67;;
60975;SDS011;46849;48.154;17.042;2022-07-25T08:36:09;3.50;;;2.40;;
60975;SDS011;46849;48.154;17.042;2022-07-25T08:38:55;5.50;;;2.15;;
60975;SDS011;46849;48.154;17.042;2022-07-25T08:41:40;5.63;;;2.42;;
60975;SDS011;46849;48.154;17.042;2022-07-25T08:44:25;3.88;;;2.00;;
60975;SDS011;46849;48.154;17.042;2022-07-25T08:47:15;4.13;;;2.47;;
60975;SDS011;46849;48.154;17.042;2022-07-25T08:50:02;4.05;;;2.55;;
60975;SDS011;46849;48.154;17.042;2022-07-25T08:55:36;3.28;;;2.10;;
60975;SDS011;46849;48.154;17.042;2022-07-25T08:58:21;5.53;;;2.22;;
60975;SDS011;46849;48.154;17.042;2022-07-25T09:01:06;3.70;;;2.22;;
60975;SDS011;46849;48.154;17.042;2022-07-25T09:03:54;4.82;;;2.22;;
60975;SDS011;46849;48.154;17.042;2022-07-25T09:06:48;2.90;;;2.10;;
60975;SDS011;46849;48.154;17.042;2022-07-25T09:09:36;3.25;;;1.85;;
60975;SDS011;46849;48.154;17.042;2022-07-25T09:12:25;3.53;;;1.90;;
60975;SDS011;46849;48.154;17.042;2022-07-25T09:15:11;2.80;;;2.03;;
60975;SDS011;46849;48.154;17.042;2022-07-25T09:18:10;3.58;;;2.10;;
60975;SDS011;46849;48.154;17.042;2022-07-25T09:20:57;3.17;;;2.17;;
60975;SDS011;46849;48.154;17.042;2022-07-25T09:23:43;5.88;;;2.33;;
60975;SDS011;46849;48.154;17.042;2022-07-25T09:26:28;5.32;;;1.80;;
60975;SDS011;46849;48.154;17.042;2022-07-25T09:32:13;2.78;;;2.08;;
60975;SDS011;46849;48.154;17.042;2022-07-25T09:35:02;3.97;;;1.60;;
60975;SDS011;46849;48.154;17.042;2022-07-25T09:37:47;3.00;;;1.92;;
60975;SDS011;46849;48.154;17.042;2022-07-25T09:40:32;2.58;;;1.80;;
60975;SDS011;46849;48.154;17.042;2022-07-25T09:43:17;3.45;;;1.70;;
60975;SDS011;46849;48.154;17.042;2022-07-25T09:46:01;3.72;;;1.80;;
60975;SDS011;46849;48.154;17.042;2022-07-25T09:48:54;2.40;;;1.90;;
60975;SDS011;46849;48.154;17.042;2022-07-25T09:51:41;4.43;;;1.80;;
60975;SDS011;46849;48.154;17.042;2022-07-25T09:54:26;2.10;;;1.50;;
60975;SDS011;46849;48.154;17.042;2022-07-25T09:57:11;5.18;;;1.75;;
60975;SDS011;46849;48.154;17.042;2022-07-25T09:59:58;2.72;;;1.85;;
60975;SDS011;46849;48.154;17.042;2022-07-25T10:09:11;2.90;;;1.90;;
60975;SDS011;46849;48.154;17.042;2022-07-25T10:12:08;2.70;;;1.70;;
60975;SDS011;46849;48.154;17.042;2022-07-25T10:15:07;2.30;;;1.63;;
60975;SDS011;46849;48.154;17.042;2022-07-25T10:18:01;4.13;;;2.10;;
60975;SDS011;46849;48.154;17.042;2022-07-25T10:20:48;4.65;;;2.03;;
60975;SDS011;46849;48.154;17.042;2022-07-25T10:23:35;4.28;;;1.83;;
60975;SDS011;46849;48.154;17.042;2022-07-25T10:26:19;2.78;;;1.90;;
60975;SDS011;46849;48.154;17.042;2022-07-25T10:29:08;3.17;;;1.42;;
60975;SDS011;46849;48.154;17.042;2022-07-25T10:31:53;5.83;;;2.17;;
60975;SDS011;46849;48.154;17.042;2022-07-25T10:34:52;4.35;;;2.22;;
60975;SDS011;46849;48.154;17.042;2022-07-25T10:37:37;3.63;;;2.00;;
60975;SDS011;46849;48.154;17.042;2022-07-25T10:40:24;2.97;;;1.92;;
60975;SDS011;46849;48.154;17.042;2022-07-25T10:43:11;4.70;;;2.03;;
60975;SDS011;46849;48.154;17.042;2022-07-25T10:46:13;2.40;;;1.73;;
60975;SDS011;46849;48.154;17.042;2022-07-25T10:49:06;4.53;;;2.03;;
60975;SDS011;46849;48.154;17.042;2022-07-25T10:51:59;4.45;;;2.13;;
60975;SDS011;46849;48.154;17.042;2022-07-25T10:54:53;3.22;;;2.08;;
60975;SDS011;46849;48.154;17.042;2022-07-25T10:57:38;3.53;;;1.90;;
60975;SDS011;46849;48.154;17.042;2022-07-25T11:00:23;2.83;;;2.08;;
60975;SDS011;46849;48.154;17.042;2022-07-25T11:03:08;3.95;;;2.10;;
60975;SDS011;46849;48.154;17.042;2022-07-25T11:05:53;2.65;;;2.20;;
60975;SDS011;46849;48.154;17.042;2022-07-25T11:08:41;2.50;;;2.03;;
60975;SDS011;46849;48.154;17.042;2022-07-25T11:11:37;3.20;;;2.03;;
60975;SDS011;46849;48.154;17.042;2022-07-25T11:14:25;2.50;;;2.03;;
60975;SDS011;46849;48.154;17.042;2022-07-25T11:17:16;2.75;;;2.08;;
60975;SDS011;46849;48.154;17.042;2022-07-25T11:20:07;2.28;;;1.70;;
60975;SDS011;46849;48.154;17.042;2022-07-25T11:22:53;3.55;;;2.03;;
60975;SDS011;46849;48.154;17.042;2022-07-25T11:25:38;3.58;;;1.90;;
60975;SDS011;46849;48.154;17.042;2022-07-25T11:28:25;6.30;;;2.33;;
60975;SDS011;46849;48.154;17.042;2022-07-25T11:31:23;6.00;;;2.05;;
60975;SDS011;46849;48.154;17.042;2022-07-25T11:34:08;2.60;;;1.95;;
60975;SDS011;46849;48.154;17.042;2022-07-25T11:36:53;4.45;;;1.98;;
60975;SDS011;46849;48.154;17.042;2022-07-25T11:39:40;2.83;;;1.77;;
60975;SDS011;46849;48.154;17.042;2022-07-25T11:42:37;5.63;;;2.17;;
60975;SDS011;46849;48.154;17.042;2022-07-25T11:45:32;2.20;;;1.88;;
60975;SDS011;46849;48.154;17.042;2022-07-25T11:48:17;7.03;;;2.17;;
60975;SDS011;46849;48.154;17.042;2022-07-25T11:51:16;3.45;;;1.80;;
60975;SDS011;46849;48.154;17.042;2022-07-25T11:54:06;2.78;;;1.63;;
60975;SDS011;46849;48.154;17.042;2022-07-25T11:56:52;3.50;;;2.40;;
60975;SDS011;46849;48.154;17.042;2022-07-25T11:59:41;2.63;;;2.03;;
60975;SDS011;46849;48.154;17.042;2022-07-25T12:02:27;3.38;;;2.00;;
60975;SDS011;46849;48.154;17.042;2022-07-25T12:05:17;2.70;;;2.00;;
60975;SDS011;46849;48.154;17.042;2022-07-25T12:08:10;2.97;;;2.00;;
60975;SDS011;46849;48.154;17.042;2022-07-25T12:10:56;5.07;;;2.70;;
60975;SDS011;46849;48.154;17.042;2022-07-25T12:13:41;2.05;;;1.85;;
60975;SDS011;46849;48.154;17.042;2022-07-25T12:16:25;3.88;;;2.00;;
60975;SDS011;46849;48.154;17.042;2022-07-25T12:19:16;2.70;;;1.98;;
60975;SDS011;46849;48.154;17.042;2022-07-25T12:22:03;2.97;;;2.15;;
60975;SDS011;46849;48.154;17.042;2022-07-25T12:24:48;3.05;;;2.20;;
60975;SDS011;46849;48.154;17.042;2022-07-25T12:27:33;3.03;;;2.28;;
60975;SDS011;46849;48.154;17.042;2022-07-25T12:30:18;3.13;;;2.45;;
60975;SDS011;46849;48.154;17.042;2022-07-25T12:33:03;3.17;;;2.28;;
60975;SDS011;46849;48.154;17.042;2022-07-25T12:35:48;5.38;;;2.47;;
60975;SDS011;46849;48.154;17.042;2022-07-25T12:38:33;4.28;;;2.33;;
60975;SDS011;46849;48.154;17.042;2022-07-25T12:41:18;3.38;;;2.17;;
60975;SDS011;46849;48.154;17.042;2022-07-25T12:44:06;3.15;;;2.10;;
60975;SDS011;46849;48.154;17.042;2022-07-25T12:46:50;6.30;;;2.20;;
60975;SDS011;46849;48.154;17.042;2022-07-25T12:49:36;3.13;;;2.25;;
60975;SDS011;46849;48.154;17.042;2022-07-25T12:52:21;2.95;;;2.03;;
60975;SDS011;46849;48.154;17.042;2022-07-25T12:55:07;3.70;;;2.50;;
60975;SDS011;46849;48.154;17.042;2022-07-25T12:57:53;3.88;;;2.55;;
60975;SDS011;46849;48.154;17.042;2022-07-25T13:00:39;3.25;;;2.20;;
60975;SDS011;46849;48.154;17.042;2022-07-25T13:03:23;4.18;;;1.98;;
60975;SDS011;46849;48.154;17.042;2022-07-25T13:06:08;3.72;;;2.45;;
60975;SDS011;46849;48.154;17.042;2022-07-25T13:08:52;4.10;;;2.35;;
60975;SDS011;46849;48.154;17.042;2022-07-25T13:11:37;3.83;;;2.10;;
60975;SDS011;46849;48.154;17.042;2022-07-25T13:14:22;3.47;;;2.20;;
60975;SDS011;46849;48.154;17.042;2022-07-25T13:17:07;4.45;;;2.50;;
60975;SDS011;46849;48.154;17.042;2022-07-25T13:19:51;3.72;;;2.50;;
60975;SDS011;46849;48.154;17.042;2022-07-25T13:22:36;3.30;;;2.45;;
60975;SDS011;46849;48.154;17.042;2022-07-25T13:25:21;5.10;;;2.58;;
60975;SDS011;46849;48.154;17.042;2022-07-25T13:28:05;3.53;;;2.13;;
60975;SDS011;46849;48.154;17.042;2022-07-25T13:30:50;6.70;;;2.65;;
60975;SDS011;46849;48.154;17.042;2022-07-25T13:33:35;5.75;;;2.67;;
60975;SDS011;46849;48.154;17.042;2022-07-25T13:36:19;3.33;;;2.65;;
60975;SDS011;46849;48.154;17.042;2022-07-25T13:39:06;3.85;;;2.85;;
60975;SDS011;46849;48.154;17.042;2022-07-25T13:41:51;4.28;;;2.60;;
60975;SDS011;46849;48.154;17.042;2022-07-25T13:44:36;2.65;;;2.33;;
60975;SDS011;46849;48.154;17.042;2022-07-25T13:47:20;3.45;;;2.70;;
60975;SDS011;46849;48.154;17.042;2022-07-25T13:50:06;4.90;;;2.40;;
60975;SDS011;46849;48.154;17.042;2022-07-25T13:52:51;3.28;;;2.50;;
60975;SDS011;46849;48.154;17.042;2022-07-25T13:55:36;3.58;;;2.53;;
60975;SDS011;46849;48.154;17.042;2022-07-25T13:58:22;4.45;;;2.70;;
60975;SDS011;46849;48.154;17.042;2022-07-25T14:01:07;3.92;;;2.50;;
60975;SDS011;46849;48.154;17.042;2022-07-25T14:03:52;4.43;;;2.65;;
60975;SDS011;46849;48.154;17.042;2022-07-25T14:06:38;5.15;;;2.60;;
60975;SDS011;46849;48.154;17.042;2022-07-25T14:09:22;4.47;;;2.60;;
60975;SDS011;46849;48.154;17.042;2022-07-25T14:12:07;6.93;;;2.85;;
60975;SDS011;46849;48.154;17.042;2022-07-25T14:14:52;4.85;;;2.70;;
60975;SDS011;46849;48.154;17.042;2022-07-25T14:17:36;2.97;;;2.58;;
60975;SDS011;46849;48.154;17.042;2022-07-25T14:20:22;3.92;;;2.80;;
60975;SDS011;46849;48.154;17.042;2022-07-25T14:23:07;4.00;;;2.35;;
60975;SDS011;46849;48.154;17.042;2022-07-25T14:25:52;5.45;;;2.53;;
60975;SDS011;46849;48.154;17.042;2022-07-25T14:28:38;3.45;;;2.50;;
60975;SDS011;46849;48.154;17.042;2022-07-25T14:31:23;4.55;;;2.70;;
60975;SDS011;46849;48.154;17.042;2022-07-25T14:34:08;5.32;;;3.22;;
60975;SDS011;46849;48.154;17.042;2022-07-25T14:36:53;3.25;;;2.72;;
60975;SDS011;46849;48.154;17.042;2022-07-25T14:39:38;4.43;;;2.60;;
60975;SDS011;46849;48.154;17.042;2022-07-25T14:42:23;3.05;;;2.50;;
60975;SDS011;46849;48.154;17.042;2022-07-25T14:45:08;3.97;;;2.65;;
60975;SDS011;46849;48.154;17.042;2022-07-25T14:47:53;3.33;;;2.55;;
60975;SDS011;46849;48.154;17.042;2022-07-25T14:50:38;4.13;;;2.58;;
60975;SDS011;46849;48.154;17.042;2022-07-25T14:53:22;3.15;;;2.50;;
60975;SDS011;46849;48.154;17.042;2022-07-25T14:56:07;3.20;;;2.42;;
60975;SDS011;46849;48.154;17.042;2022-07-25T14:58:52;3.08;;;2.30;;
60975;SDS011;46849;48.154;17.042;2022-07-25T15:01:37;4.63;;;2.53;;
60975;SDS011;46849;48.154;17.042;2022-07-25T15:04:22;3.95;;;2.90;;
60975;SDS011;46849;48.154;17.042;2022-07-25T15:07:08;3.45;;;2.50;;
60975;SDS011;46849;48.154;17.042;2022-07-25T15:09:53;3.05;;;2.25;;
60975;SDS011;46849;48.154;17.042;2022-07-25T15:12:39;4.63;;;2.28;;
60975;SDS011;46849;48.154;17.042;2022-07-25T15:15:23;4.13;;;2.80;;
60975;SDS011;46849;48.154;17.042;2022-07-25T15:18:09;3.95;;;2.22;;
60975;SDS011;46849;48.154;17.042;2022-07-25T15:20:53;3.30;;;2.63;;
60975;SDS011;46849;48.154;17.042;2022-07-25T15:23:38;3.85;;;2.67;;
60975;SDS011;46849;48.154;17.042;2022-07-25T15:26:23;4.00;;;2.40;;
60975;SDS011;46849;48.154;17.042;2022-07-25T15:29:08;7.90;;;2.83;;
60975;SDS011;46849;48.154;17.042;2022-07-25T15:31:53;4.90;;;2.40;;
60975;SDS011;46849;48.154;17.042;2022-07-25T15:34:38;2.47;;;2.15;;
60975;SDS011;46849;48.154;17.042;2022-07-25T15:37:23;3.40;;;2.15;;
60975;SDS011;46849;48.154;17.042;2022-07-25T15:40:11;10.02;;;2.83;;
60975;SDS011;46849;48.154;17.042;2022-07-25T15:42:56;4.40;;;2.60;;
60975;SDS011;46849;48.154;17.042;2022-07-25T15:45:43;4.35;;;2.40;;
60975;SDS011;46849;48.154;17.042;2022-07-25T15:48:33;2.97;;;2.65;;
60975;SDS011;46849;48.154;17.042;2022-07-25T15:51:18;4.10;;;2.67;;
60975;SDS011;46849;48.154;17.042;2022-07-25T15:54:03;5.22;;;2.80;;
60975;SDS011;46849;48.154;17.042;2022-07-25T15:56:48;3.13;;;2.42;;
60975;SDS011;46849;48.154;17.042;2022-07-25T15:59:32;4.03;;;2.78;;
60975;SDS011;46849;48.154;17.042;2022-07-25T16:02:18;4.05;;;2.55;;
60975;SDS011;46849;48.154;17.042;2022-07-25T16:05:03;2.50;;;2.13;;
60975;SDS011;46849;48.154;17.042;2022-07-25T16:07:48;3.95;;;2.83;;
60975;SDS011;46849;48.154;17.042;2022-07-25T16:10:33;8.25;;;2.70;;
60975;SDS011;46849;48.154;17.042;2022-07-25T16:13:18;5.25;;;2.90;;
60975;SDS011;46849;48.154;17.042;2022-07-25T16:16:03;4.20;;;2.78;;
60975;SDS011;46849;48.154;17.042;2022-07-25T16:18:49;3.63;;;2.60;;
60975;SDS011;46849;48.154;17.042;2022-07-25T16:21:33;4.53;;;2.72;;
60975;SDS011;46849;48.154;17.042;2022-07-25T16:24:18;6.07;;;2.78;;
60975;SDS011;46849;48.154;17.042;2022-07-25T16:27:07;2.80;;;2.17;;
60975;SDS011;46849;48.154;17.042;2022-07-25T16:29:56;4.05;;;2.70;;
60975;SDS011;46849;48.154;17.042;2022-07-25T16:32:41;3.65;;;2.35;;
60975;SDS011;46849;48.154;17.042;2022-07-25T16:35:25;3.85;;;2.65;;